Loughborough, United Kingdom
Current Conditions -  °F | °C
As of 7:20 AM on Saturday 20 Dec 2014 (Local Time) from EGNX Reporting Station
Scattered Clouds Scattered Clouds  
Wind Chill: 36°   Ceiling: Unl
Heat Index: 45°   Visibility: 6mi
Dew Point: 36°   Wind: 22mph
Humidity: 71%   Direction: 270°W
Pressure: 30.15"   Gusts: NA
Location:  52.77°N, 1.2°W
Report Text: EGNX 200720Z 27019KT 9999 SCT030 07/02 Q1021
Loading
Personal Weather Stations






























Interactive Weather Map New forecast layout! Learn more

10-Day Weather Forecast

Advertisements
Track Severe Weather on mobile